This is the latest recevied weather packets stored in our database for station/object OZ0AJ-13. If no packets are shown the sender has not sent any weather packets the latest 1 day(s).
| Time | Temp. | Humidity | Pressure | Rain* | Wind** | Luminosity | Snow |
|---|---|---|---|---|---|---|---|
| 1777996227 | 15.56° C | 50% | 1011.9 hPa | 0 mm | 1.34 m/s, 19° | - | - |
| 1777995623 | 15.56° C | 51% | 1011.8 hPa | 0 mm | 1.34 m/s, 19° | - | - |
| 1777995019 | 15.56° C | 50% | 1011.7 hPa | 0 mm | 1.34 m/s, 19° | - | - |
| 1777994435 | 15.56° C | 51% | 1011.8 hPa | 0 mm | 1.34 m/s, 19° | - | - |
| 1777993831 | 15.56° C | 51% | 1011.7 hPa | 0 mm | 1.34 m/s, 19° | - | - |
| 1777993227 | 15.56° C | 52% | 1011.7 hPa | 0 mm | 1.34 m/s, 19° | - | - |
| 1777992623 | 15.56° C | 51% | 1011.7 hPa | 0 mm | 1.34 m/s, 19° | - | - |
| 1777992019 | 15.56° C | 50% | 1011.7 hPa | 0 mm | 1.34 m/s, 19° | - | - |
| 1777991415 | 16.11° C | 49% | 1011.8 hPa | 0 mm | 1.34 m/s, 19° | - | - |
| 1777990832 | 15.56° C | 48% | 1011.8 hPa | 0 mm | 1.34 m/s, 19° | - | - |
| 1777990228 | 15.56° C | 49% | 1011.8 hPa | 0 mm | 1.34 m/s, 19° | - | - |
| 1777989624 | 15° C | 51% | 1011.7 hPa | 0 mm | 1.34 m/s, 19° | - | - |
| 1777989020 | 15° C | 53% | 1011.8 hPa | 0 mm | 1.34 m/s, 19° | - | - |
| 1777988416 | 14.44° C | 56% | 1011.9 hPa | 0 mm | 1.34 m/s, 19° | - | - |
| 1777987833 | 13.33° C | 60% | 1011.8 hPa | 0 mm | 1.34 m/s, 19° | - | - |
| 1777987228 | 14.44° C | 58% | 1011.9 hPa | 0 mm | 1.34 m/s, 19° | - | - |
| 1777986624 | 15.56° C | 54% | 1012 hPa | 0 mm | 1.34 m/s, 19° | - | - |
| 1777986021 | 14.44° C | 56% | 1012 hPa | 0 mm | 1.34 m/s, 19° | - | - |
| 1777985417 | 12.78° C | 61% | 1012 hPa | 0 mm | 1.34 m/s, 19° | - | - |
| 1777984833 | 13.33° C | 60% | 1012 hPa | 0 mm | 1.34 m/s, 19° | - | - |
| 1777984229 | 13.33° C | 60% | 1012 hPa | 0 mm | 1.34 m/s, 19° | - | - |
| 1777983625 | 13.33° C | 60% | 1012 hPa | 0 mm | 1.34 m/s, 19° | - | - |
| 1777983021 | 13.89° C | 60% | 1011.8 hPa | 0 mm | 1.34 m/s, 19° | - | - |
| 1777982417 | 13.89° C | 57% | 1011.9 hPa | 0 mm | 1.34 m/s, 19° | - | - |
| 1777981833 | 12.78° C | 60% | 1011.9 hPa | 0 mm | 1.34 m/s, 19° | - | - |
* Rain latest hour (hover to see other rain measurements)
** Current wind speed in m/s (hover to see current wind gust speed)